sensor_id;sensor_type;location;lat;lon;timestamp;pressure;altitude;pressure_sealevel;temperature;humidity
48892;BME280;50130;52.150;5.236;2022-08-21T00:01:28;101515.0;;;15.05;89.79
48892;BME280;50130;52.150;5.236;2022-08-21T00:03:08;101516.0;;;15.06;89.58
48892;BME280;50130;52.150;5.236;2022-08-21T00:06:23;101516.0;;;14.89;90.39
48892;BME280;50130;52.150;5.236;2022-08-21T00:08:01;101517.0;;;14.94;89.62
48892;BME280;50130;52.150;5.236;2022-08-21T00:09:39;101518.0;;;14.88;89.58
48892;BME280;50130;52.150;5.236;2022-08-21T00:12:54;101517.0;;;14.86;90.36
48892;BME280;50130;52.150;5.236;2022-08-21T00:14:32;101517.0;;;14.88;90.31
48892;BME280;50130;52.150;5.236;2022-08-21T00:16:09;101515.0;;;14.84;90.34
48892;BME280;50130;52.150;5.236;2022-08-21T00:17:46;101518.0;;;14.9;90.08
48892;BME280;50130;52.150;5.236;2022-08-21T00:21:02;101511.0;;;14.97;90.0
48892;BME280;50130;52.150;5.236;2022-08-21T00:22:39;101508.0;;;14.77;90.39
48892;BME280;50130;52.150;5.236;2022-08-21T00:24:17;101511.0;;;14.92;90.34
48892;BME280;50130;52.150;5.236;2022-08-21T00:27:31;101510.0;;;14.84;90.03
48892;BME280;50130;52.150;5.236;2022-08-21T00:29:07;101502.0;;;14.79;90.08
48892;BME280;50130;52.150;5.236;2022-08-21T00:30:43;101505.0;;;14.72;90.38
48892;BME280;50130;52.150;5.236;2022-08-21T00:32:21;101501.0;;;14.72;90.74
48892;BME280;50130;52.150;5.236;2022-08-21T00:35:40;101499.0;;;14.62;91.24
48892;BME280;50130;52.150;5.236;2022-08-21T00:37:17;101496.0;;;14.6;91.55
48892;BME280;50130;52.150;5.236;2022-08-21T00:38:54;101495.0;;;14.56;91.65
48892;BME280;50130;52.150;5.236;2022-08-21T00:42:15;101493.0;;;14.71;91.14
48892;BME280;50130;52.150;5.236;2022-08-21T00:43:53;101499.0;;;14.86;90.44
48892;BME280;50130;52.150;5.236;2022-08-21T00:45:31;101497.0;;;14.86;90.3
48892;BME280;50130;52.150;5.236;2022-08-21T00:47:09;101497.0;;;14.7;90.81
48892;BME280;50130;52.150;5.236;2022-08-21T00:50:26;101497.0;;;14.76;91.19
48892;BME280;50130;52.150;5.236;2022-08-21T00:52:07;101496.0;;;14.71;91.07
48892;BME280;50130;52.150;5.236;2022-08-21T00:53:46;101497.0;;;14.8;90.75
48892;BME280;50130;52.150;5.236;2022-08-21T00:55:24;101495.0;;;14.72;90.84
48892;BME280;50130;52.150;5.236;2022-08-21T00:58:47;101497.0;;;14.74;90.95
48892;BME280;50130;52.150;5.236;2022-08-21T01:00:28;101497.0;;;14.72;91.03
48892;BME280;50130;52.150;5.236;2022-08-21T01:02:07;101495.0;;;14.79;91.01
48892;BME280;50130;52.150;5.236;2022-08-21T01:03:46;101496.0;;;14.81;91.1
48892;BME280;50130;52.150;5.236;2022-08-21T01:07:00;101496.0;;;14.83;90.87
48892;BME280;50130;52.150;5.236;2022-08-21T01:08:37;101494.0;;;14.72;90.96
48892;BME280;50130;52.150;5.236;2022-08-21T01:10:14;101496.0;;;14.66;91.59
48892;BME280;50130;52.150;5.236;2022-08-21T01:13:32;101496.0;;;14.68;91.21
48892;BME280;50130;52.150;5.236;2022-08-21T01:15:10;101494.0;;;14.63;91.71
48892;BME280;50130;52.150;5.236;2022-08-21T01:16:51;101496.0;;;14.63;91.36
48892;BME280;50130;52.150;5.236;2022-08-21T01:18:30;101493.0;;;14.66;91.29
48892;BME280;50130;52.150;5.236;2022-08-21T01:21:47;101493.0;;;14.68;91.29
48892;BME280;50130;52.150;5.236;2022-08-21T01:23:24;101496.0;;;14.71;91.31
48892;BME280;50130;52.150;5.236;2022-08-21T01:25:02;101497.0;;;14.77;91.36
48892;BME280;50130;52.150;5.236;2022-08-21T01:28:21;101496.0;;;14.89;90.79
48892;BME280;50130;52.150;5.236;2022-08-21T01:30:02;101496.0;;;14.73;91.23
48892;BME280;50130;52.150;5.236;2022-08-21T01:31:44;101494.0;;;14.75;91.15
48892;BME280;50130;52.150;5.236;2022-08-21T01:33:24;101493.0;;;14.72;91.25
48892;BME280;50130;52.150;5.236;2022-08-21T01:36:40;101497.0;;;14.71;91.08
48892;BME280;50130;52.150;5.236;2022-08-21T01:38:16;101493.0;;;14.61;91.42
48892;BME280;50130;52.150;5.236;2022-08-21T01:39:53;101495.0;;;14.62;91.65
48892;BME280;50130;52.150;5.236;2022-08-21T01:41:29;101490.0;;;14.58;91.91
48892;BME280;50130;52.150;5.236;2022-08-21T01:44:43;101488.0;;;14.52;92.44
48892;BME280;50130;52.150;5.236;2022-08-21T01:46:20;101492.0;;;14.58;92.51
48892;BME280;50130;52.150;5.236;2022-08-21T01:47:56;101487.0;;;14.7;91.89
48892;BME280;50130;52.150;5.236;2022-08-21T01:51:09;101487.0;;;14.75;91.38
48892;BME280;50130;52.150;5.236;2022-08-21T01:52:48;101487.0;;;14.68;91.65
48892;BME280;50130;52.150;5.236;2022-08-21T01:54:25;101486.0;;;14.63;91.9
48892;BME280;50130;52.150;5.236;2022-08-21T01:56:04;101484.0;;;14.51;92.5
48892;BME280;50130;52.150;5.236;2022-08-21T01:59:20;101484.0;;;14.58;92.29
48892;BME280;50130;52.150;5.236;2022-08-21T02:00:58;101480.0;;;14.51;92.42
48892;BME280;50130;52.150;5.236;2022-08-21T02:02:34;101474.0;;;14.62;92.38
48892;BME280;50130;52.150;5.236;2022-08-21T02:05:48;101480.0;;;14.6;92.17
48892;BME280;50130;52.150;5.236;2022-08-21T02:07:24;101476.0;;;14.64;92.0
48892;BME280;50130;52.150;5.236;2022-08-21T02:09:02;101476.0;;;14.57;92.0
48892;BME280;50130;52.150;5.236;2022-08-21T02:10:41;101480.0;;;14.51;92.62
48892;BME280;50130;52.150;5.236;2022-08-21T02:13:53;101478.0;;;14.45;93.01
48892;BME280;50130;52.150;5.236;2022-08-21T02:15:30;101480.0;;;14.55;92.71
48892;BME280;50130;52.150;5.236;2022-08-21T02:17:07;101481.0;;;14.56;92.32
48892;BME280;50130;52.150;5.236;2022-08-21T02:20:22;101476.0;;;14.59;92.5
48892;BME280;50130;52.150;5.236;2022-08-21T02:22:03;101471.0;;;14.54;92.49
48892;BME280;50130;52.150;5.236;2022-08-21T02:23:40;101466.0;;;14.64;92.01
48892;BME280;50130;52.150;5.236;2022-08-21T02:26:54;101464.0;;;14.63;91.84
48892;BME280;50130;52.150;5.236;2022-08-21T02:28:30;101468.0;;;14.57;91.99
48892;BME280;50130;52.150;5.236;2022-08-21T02:30:10;101468.0;;;14.58;91.93
48892;BME280;50130;52.150;5.236;2022-08-21T02:31:47;101464.0;;;14.56;92.09
48892;BME280;50130;52.150;5.236;2022-08-21T02:35:03;101464.0;;;14.6;91.94
48892;BME280;50130;52.150;5.236;2022-08-21T02:36:39;101458.0;;;14.58;92.09
48892;BME280;50130;52.150;5.236;2022-08-21T02:38:18;101458.0;;;14.59;92.04
48892;BME280;50130;52.150;5.236;2022-08-21T02:39:59;101455.0;;;14.54;92.15
48892;BME280;50130;52.150;5.236;2022-08-21T02:43:13;101455.0;;;14.6;92.16
48892;BME280;50130;52.150;5.236;2022-08-21T02:44:50;101451.0;;;14.61;92.18
48892;BME280;50130;52.150;5.236;2022-08-21T02:46:27;101450.0;;;14.62;92.36
48892;BME280;50130;52.150;5.236;2022-08-21T02:49:44;101453.0;;;14.69;91.86
48892;BME280;50130;52.150;5.236;2022-08-21T02:51:20;101451.0;;;14.7;91.82
48892;BME280;50130;52.150;5.236;2022-08-21T02:52:59;101449.0;;;14.75;91.58
48892;BME280;50130;52.150;5.236;2022-08-21T02:54:36;101450.0;;;14.68;91.41
48892;BME280;50130;52.150;5.236;2022-08-21T02:57:56;101450.0;;;14.57;91.91
48892;BME280;50130;52.150;5.236;2022-08-21T02:59:34;101447.0;;;14.5;92.26
48892;BME280;50130;52.150;5.236;2022-08-21T03:01:11;101449.0;;;14.49;92.36
48892;BME280;50130;52.150;5.236;2022-08-21T03:04:25;101446.0;;;14.6;92.32
48892;BME280;50130;52.150;5.236;2022-08-21T03:06:03;101441.0;;;14.47;92.79
48892;BME280;50130;52.150;5.236;2022-08-21T03:07:41;101441.0;;;14.43;92.92
48892;BME280;50130;52.150;5.236;2022-08-21T03:09:19;101440.0;;;14.49;92.6
48892;BME280;50130;52.150;5.236;2022-08-21T03:12:32;101440.0;;;14.51;92.59
48892;BME280;50130;52.150;5.236;2022-08-21T03:14:09;101436.0;;;14.45;92.85
48892;BME280;50130;52.150;5.236;2022-08-21T03:15:46;101432.0;;;14.55;91.9
48892;BME280;50130;52.150;5.236;2022-08-21T03:19:00;101432.0;;;14.48;92.25
48892;BME280;50130;52.150;5.236;2022-08-21T03:20:39;101430.0;;;14.37;92.5
48892;BME280;50130;52.150;5.236;2022-08-21T03:22:17;101430.0;;;14.37;92.76
48892;BME280;50130;52.150;5.236;2022-08-21T03:23:54;101432.0;;;14.32;92.44
48892;BME280;50130;52.150;5.236;2022-08-21T03:27:12;101433.0;;;14.28;92.39
48892;BME280;50130;52.150;5.236;2022-08-21T03:28:50;101437.0;;;14.33;92.2
48892;BME280;50130;52.150;5.236;2022-08-21T03:30:27;101435.0;;;14.23;92.31
48892;BME280;50130;52.150;5.236;2022-08-21T03:33:41;101436.0;;;14.26;92.26
48892;BME280;50130;52.150;5.236;2022-08-21T03:35:18;101433.0;;;14.27;92.17
48892;BME280;50130;52.150;5.236;2022-08-21T03:36:56;101433.0;;;14.25;92.36
48892;BME280;50130;52.150;5.236;2022-08-21T03:38:34;101430.0;;;14.29;92.04
48892;BME280;50130;52.150;5.236;2022-08-21T03:41:53;101430.0;;;14.22;91.91
48892;BME280;50130;52.150;5.236;2022-08-21T03:43:30;101430.0;;;14.19;92.19
48892;BME280;50130;52.150;5.236;2022-08-21T03:45:07;101430.0;;;14.18;92.23
48892;BME280;50130;52.150;5.236;2022-08-21T03:48:22;101426.0;;;14.24;92.06
48892;BME280;50130;52.150;5.236;2022-08-21T03:49:59;101424.0;;;14.27;91.82
48892;BME280;50130;52.150;5.236;2022-08-21T03:51:36;101425.0;;;14.31;91.46
48892;BME280;50130;52.150;5.236;2022-08-21T03:53:14;101422.0;;;14.13;92.0
48892;BME280;50130;52.150;5.236;2022-08-21T03:56:28;101423.0;;;14.11;92.12
48892;BME280;50130;52.150;5.236;2022-08-21T03:58:06;101422.0;;;14.11;91.92
48892;BME280;50130;52.150;5.236;2022-08-21T03:59:43;101419.0;;;14.06;92.26
48892;BME280;50130;52.150;5.236;2022-08-21T04:02:56;101418.0;;;14.08;92.43
48892;BME280;50130;52.150;5.236;2022-08-21T04:04:33;101414.0;;;14.1;92.47
48892;BME280;50130;52.150;5.236;2022-08-21T04:06:10;101419.0;;;14.09;92.76
48892;BME280;50130;52.150;5.236;2022-08-21T04:07:46;101415.0;;;13.99;92.91
48892;BME280;50130;52.150;5.236;2022-08-21T04:11:02;101415.0;;;14.16;92.54
48892;BME280;50130;52.150;5.236;2022-08-21T04:12:39;101420.0;;;14.07;92.65
48892;BME280;50130;52.150;5.236;2022-08-21T04:14:16;101421.0;;;14.18;92.61
48892;BME280;50130;52.150;5.236;2022-08-21T04:17:30;101419.0;;;14.16;92.93
48892;BME280;50130;52.150;5.236;2022-08-21T04:19:06;101420.0;;;14.17;93.03
48892;BME280;50130;52.150;5.236;2022-08-21T04:20:45;101422.0;;;14.2;93.04
48892;BME280;50130;52.150;5.236;2022-08-21T04:24:00;101423.0;;;14.27;92.79
48892;BME280;50130;52.150;5.236;2022-08-21T04:25:36;101428.0;;;14.33;92.23
48892;BME280;50130;52.150;5.236;2022-08-21T04:27:13;101424.0;;;14.22;92.76
48892;BME280;50130;52.150;5.236;2022-08-21T04:28:49;101423.0;;;14.18;92.81
48892;BME280;50130;52.150;5.236;2022-08-21T04:32:03;101425.0;;;14.23;92.68
48892;BME280;50130;52.150;5.236;2022-08-21T04:33:40;101424.0;;;14.21;92.86
48892;BME280;50130;52.150;5.236;2022-08-21T04:35:19;101426.0;;;14.2;92.37
48892;BME280;50130;52.150;5.236;2022-08-21T04:38:32;101430.0;;;14.18;92.08
48892;BME280;50130;52.150;5.236;2022-08-21T04:40:10;101427.0;;;14.16;92.05
48892;BME280;50130;52.150;5.236;2022-08-21T04:41:49;101430.0;;;14.18;92.01
48892;BME280;50130;52.150;5.236;2022-08-21T04:43:25;101430.0;;;14.17;92.09
48892;BME280;50130;52.150;5.236;2022-08-21T04:46:38;101432.0;;;14.21;92.59
48892;BME280;50130;52.150;5.236;2022-08-21T04:48:17;101434.0;;;14.33;92.62
48892;BME280;50130;52.150;5.236;2022-08-21T04:49:55;101433.0;;;14.25;92.84
48892;BME280;50130;52.150;5.236;2022-08-21T04:53:15;101437.0;;;14.19;93.06
48892;BME280;50130;52.150;5.236;2022-08-21T04:54:54;101435.0;;;14.21;93.13
48892;BME280;50130;52.150;5.236;2022-08-21T04:56:33;101436.0;;;14.15;92.98
48892;BME280;50130;52.150;5.236;2022-08-21T04:58:19;101441.0;;;14.26;92.23
48892;BME280;50130;52.150;5.236;2022-08-21T05:01:35;101434.0;;;14.14;92.51
48892;BME280;50130;52.150;5.236;2022-08-21T05:03:13;101445.0;;;14.13;92.86
48892;BME280;50130;52.150;5.236;2022-08-21T05:04:54;101446.0;;;14.13;92.44
48892;BME280;50130;52.150;5.236;2022-08-21T05:06:33;101447.0;;;13.99;93.38
48892;BME280;50130;52.150;5.236;2022-08-21T05:09:55;101450.0;;;14.05;93.27
48892;BME280;50130;52.150;5.236;2022-08-21T05:11:32;101446.0;;;14.05;93.12
48892;BME280;50130;52.150;5.236;2022-08-21T05:13:10;101452.0;;;14.03;93.39
48892;BME280;50130;52.150;5.236;2022-08-21T05:14:48;101453.0;;;14.04;93.74
48892;BME280;50130;52.150;5.236;2022-08-21T05:18:03;101452.0;;;14.19;93.02
48892;BME280;50130;52.150;5.236;2022-08-21T05:19:40;101450.0;;;14.21;93.01
48892;BME280;50130;52.150;5.236;2022-08-21T05:21:16;101457.0;;;14.16;93.58
48892;BME280;50130;52.150;5.236;2022-08-21T05:24:30;101455.0;;;14.14;93.71
48892;BME280;50130;52.150;5.236;2022-08-21T05:26:07;101457.0;;;14.13;94.19
48892;BME280;50130;52.150;5.236;2022-08-21T05:27:43;101456.0;;;14.23;93.79
48892;BME280;50130;52.150;5.236;2022-08-21T05:30:57;101460.0;;;14.24;94.05
48892;BME280;50130;52.150;5.236;2022-08-21T05:32:34;101456.0;;;14.3;93.9
48892;BME280;50130;52.150;5.236;2022-08-21T05:34:13;101460.0;;;14.37;94.02
48892;BME280;50130;52.150;5.236;2022-08-21T05:35:49;101461.0;;;14.45;93.82
48892;BME280;50130;52.150;5.236;2022-08-21T05:39:04;101459.0;;;14.52;93.9
48892;BME280;50130;52.150;5.236;2022-08-21T05:40:40;101459.0;;;14.53;94.35
48892;BME280;50130;52.150;5.236;2022-08-21T05:42:17;101459.0;;;14.54;94.32
48892;BME280;50130;52.150;5.236;2022-08-21T05:45:31;101460.0;;;14.57;94.73
48892;BME280;50130;52.150;5.236;2022-08-21T05:47:10;101466.0;;;14.65;94.72
48892;BME280;50130;52.150;5.236;2022-08-21T05:48:46;101464.0;;;14.81;94.73
48892;BME280;50130;52.150;5.236;2022-08-21T05:50:23;101458.0;;;14.83;94.57
48892;BME280;50130;52.150;5.236;2022-08-21T05:53:38;101455.0;;;15.09;94.73
48892;BME280;50130;52.150;5.236;2022-08-21T05:55:15;101460.0;;;15.05;94.53
48892;BME280;50130;52.150;5.236;2022-08-21T05:56:51;101459.0;;;15.12;95.08
48892;BME280;50130;52.150;5.236;2022-08-21T06:00:04;101457.0;;;15.1;94.94
48892;BME280;50130;52.150;5.236;2022-08-21T06:01:41;101458.0;;;15.22;94.72
48892;BME280;50130;52.150;5.236;2022-08-21T06:03:20;101455.0;;;15.24;95.17
48892;BME280;50130;52.150;5.236;2022-08-21T06:05:00;101456.0;;;15.31;95.74
48892;BME280;50130;52.150;5.236;2022-08-21T06:08:14;101456.0;;;15.35;95.29
48892;BME280;50130;52.150;5.236;2022-08-21T06:09:50;101453.0;;;15.47;95.42
48892;BME280;50130;52.150;5.236;2022-08-21T06:11:27;101447.0;;;15.52;95.32
48892;BME280;50130;52.150;5.236;2022-08-21T06:14:41;101449.0;;;15.55;96.09
48892;BME280;50130;52.150;5.236;2022-08-21T06:16:18;101446.0;;;15.63;95.54
48892;BME280;50130;52.150;5.236;2022-08-21T06:17:54;101449.0;;;15.57;96.29
48892;BME280;50130;52.150;5.236;2022-08-21T06:21:09;101450.0;;;15.83;96.79
48892;BME280;50130;52.150;5.236;2022-08-21T06:22:46;101452.0;;;15.85;96.58
48892;BME280;50130;52.150;5.236;2022-08-21T06:24:22;101455.0;;;16.02;96.78
48892;BME280;50130;52.150;5.236;2022-08-21T06:26:00;101449.0;;;16.02;96.88
48892;BME280;50130;52.150;5.236;2022-08-21T06:29:17;101453.0;;;16.2;96.59
48892;BME280;50130;52.150;5.236;2022-08-21T06:30:53;101452.0;;;16.22;96.25
48892;BME280;50130;52.150;5.236;2022-08-21T06:32:31;101453.0;;;16.27;96.63
48892;BME280;50130;52.150;5.236;2022-08-21T06:35:44;101452.0;;;16.3;96.56
48892;BME280;50130;52.150;5.236;2022-08-21T06:37:21;101453.0;;;16.5;96.65
48892;BME280;50130;52.150;5.236;2022-08-21T06:38:58;101459.0;;;16.68;96.03
48892;BME280;50130;52.150;5.236;2022-08-21T06:40:34;101459.0;;;16.75;95.82
48892;BME280;50130;52.150;5.236;2022-08-21T06:43:50;101462.0;;;16.79;95.83
48892;BME280;50130;52.150;5.236;2022-08-21T06:45:27;101458.0;;;17.0;94.79
48892;BME280;50130;52.150;5.236;2022-08-21T06:47:04;101458.0;;;17.0;95.25
48892;BME280;50130;52.150;5.236;2022-08-21T06:50:17;101453.0;;;16.97;95.74
48892;BME280;50130;52.150;5.236;2022-08-21T06:51:54;101458.0;;;17.06;95.41
48892;BME280;50130;52.150;5.236;2022-08-21T06:53:31;101455.0;;;17.13;95.32
48892;BME280;50130;52.150;5.236;2022-08-21T06:55:10;101455.0;;;17.32;94.92
48892;BME280;50130;52.150;5.236;2022-08-21T06:58:26;101448.0;;;17.48;94.63
48892;BME280;50130;52.150;5.236;2022-08-21T07:00:03;101459.0;;;17.46;94.64
48892;BME280;50130;52.150;5.236;2022-08-21T07:01:43;101457.0;;;17.55;94.94
48892;BME280;50130;52.150;5.236;2022-08-21T07:05:01;101458.0;;;17.66;94.63
48892;BME280;50130;52.150;5.236;2022-08-21T07:06:38;101460.0;;;17.81;94.32
48892;BME280;50130;52.150;5.236;2022-08-21T07:08:15;101460.0;;;17.86;93.7
48892;BME280;50130;52.150;5.236;2022-08-21T07:09:52;101453.0;;;17.96;93.91
48892;BME280;50130;52.150;5.236;2022-08-21T07:13:05;101450.0;;;18.06;93.39
48892;BME280;50130;52.150;5.236;2022-08-21T07:14:42;101455.0;;;18.18;92.77
48892;BME280;50130;52.150;5.236;2022-08-21T07:19:34;101453.0;;;18.34;92.41
48892;BME280;50130;52.150;5.236;2022-08-21T07:21:10;101456.0;;;18.52;92.16
48892;BME280;50130;52.150;5.236;2022-08-21T07:22:47;101455.0;;;18.43;92.09
48892;BME280;50130;52.150;5.236;2022-08-21T07:26:00;101453.0;;;18.59;91.74
48892;BME280;50130;52.150;5.236;2022-08-21T07:27:37;101455.0;;;18.68;91.73
48892;BME280;50130;52.150;5.236;2022-08-21T07:29:13;101455.0;;;18.84;90.92
48892;BME280;50130;52.150;5.236;2022-08-21T07:30:51;101455.0;;;19.02;90.22
48892;BME280;50130;52.150;5.236;2022-08-21T07:34:06;101455.0;;;19.06;90.52
48892;BME280;50130;52.150;5.236;2022-08-21T07:35:44;101456.0;;;19.05;90.2
48892;BME280;50130;52.150;5.236;2022-08-21T07:37:21;101460.0;;;19.25;89.66
48892;BME280;50130;52.150;5.236;2022-08-21T07:40:35;101462.0;;;19.38;88.48
48892;BME280;50130;52.150;5.236;2022-08-21T07:42:11;101467.0;;;19.41;88.31
48892;BME280;50130;52.150;5.236;2022-08-21T07:43:47;101470.0;;;19.52;88.47
48892;BME280;50130;52.150;5.236;2022-08-21T07:45:25;101471.0;;;19.62;88.57
48892;BME280;50130;52.150;5.236;2022-08-21T07:48:40;101471.0;;;19.63;87.49
48892;BME280;50130;52.150;5.236;2022-08-21T07:50:18;101475.0;;;19.64;87.73
48892;BME280;50130;52.150;5.236;2022-08-21T07:51:55;101473.0;;;19.84;88.39
48892;BME280;50130;52.150;5.236;2022-08-21T07:55:09;101471.0;;;20.04;87.68
48892;BME280;50130;52.150;5.236;2022-08-21T07:56:47;101474.0;;;20.12;87.18
48892;BME280;50130;52.150;5.236;2022-08-21T07:58:23;101478.0;;;20.32;85.96
48892;BME280;50130;52.150;5.236;2022-08-21T08:00:00;101472.0;;;20.3;85.21
48892;BME280;50130;52.150;5.236;2022-08-21T08:03:12;101471.0;;;20.43;84.6
48892;BME280;50130;52.150;5.236;2022-08-21T08:04:50;101471.0;;;20.63;84.28
48892;BME280;50130;52.150;5.236;2022-08-21T08:06:27;101462.0;;;20.76;83.74
48892;BME280;50130;52.150;5.236;2022-08-21T08:09:41;101461.0;;;20.91;83.1
48892;BME280;50130;52.150;5.236;2022-08-21T08:11:17;101457.0;;;21.02;83.68
48892;BME280;50130;52.150;5.236;2022-08-21T08:12:54;101462.0;;;21.04;82.83
48892;BME280;50130;52.150;5.236;2022-08-21T08:16:09;101456.0;;;21.16;82.44
48892;BME280;50130;52.150;5.236;2022-08-21T08:17:46;101460.0;;;21.25;81.5
48892;BME280;50130;52.150;5.236;2022-08-21T08:19:24;101463.0;;;21.26;82.53
48892;BME280;50130;52.150;5.236;2022-08-21T08:21:01;101458.0;;;21.4;81.98
48892;BME280;50130;52.150;5.236;2022-08-21T08:24:16;101464.0;;;21.51;82.02
48892;BME280;50130;52.150;5.236;2022-08-21T08:25:52;101466.0;;;21.53;80.63
48892;BME280;50130;52.150;5.236;2022-08-21T08:27:30;101465.0;;;21.66;80.64
48892;BME280;50130;52.150;5.236;2022-08-21T08:30:45;101463.0;;;21.53;80.61
48892;BME280;50130;52.150;5.236;2022-08-21T08:32:22;101470.0;;;21.64;79.16
48892;BME280;50130;52.150;5.236;2022-08-21T08:33:59;101466.0;;;21.62;79.98
48892;BME280;50130;52.150;5.236;2022-08-21T08:35:36;101465.0;;;21.54;79.27
48892;BME280;50130;52.150;5.236;2022-08-21T08:38:49;101466.0;;;21.55;79.27
48892;BME280;50130;52.150;5.236;2022-08-21T08:40:33;101463.0;;;21.56;79.52
48892;BME280;50130;52.150;5.236;2022-08-21T08:42:23;101467.0;;;21.53;79.56
48892;BME280;50130;52.150;5.236;2022-08-21T08:44:06;101473.0;;;21.61;78.83
48892;BME280;50130;52.150;5.236;2022-08-21T08:47:27;101469.0;;;21.57;79.2
48892;BME280;50130;52.150;5.236;2022-08-21T08:49:10;101472.0;;;21.63;78.3
48892;BME280;50130;52.150;5.236;2022-08-21T08:50:55;101467.0;;;21.54;79.55
48892;BME280;50130;52.150;5.236;2022-08-21T08:52:34;101466.0;;;21.59;80.31
48892;BME280;50130;52.150;5.236;2022-08-21T08:56:00;101461.0;;;21.77;79.59
48892;BME280;50130;52.150;5.236;2022-08-21T08:57:37;101465.0;;;21.88;78.36
48892;BME280;50130;52.150;5.236;2022-08-21T08:59:19;101461.0;;;21.81;78.3
48892;BME280;50130;52.150;5.236;2022-08-21T09:01:09;101462.0;;;21.94;78.19
48892;BME280;50130;52.150;5.236;2022-08-21T09:02:53;101460.0;;;22.02;77.08
48892;BME280;50130;52.150;5.236;2022-08-21T09:06:25;101460.0;;;22.01;77.33
48892;BME280;50130;52.150;5.236;2022-08-21T09:08:19;101455.0;;;22.03;77.47
48892;BME280;50130;52.150;5.236;2022-08-21T09:10:13;101456.0;;;22.09;77.7
48892;BME280;50130;52.150;5.236;2022-08-21T09:11:59;101459.0;;;22.22;76.55
48892;BME280;50130;52.150;5.236;2022-08-21T09:13:48;101452.0;;;22.38;76.83
48892;BME280;50130;52.150;5.236;2022-08-21T09:15:32;101464.0;;;22.57;76.62
48892;BME280;50130;52.150;5.236;2022-08-21T09:19:26;101463.0;;;22.64;75.06
48892;BME280;50130;52.150;5.236;2022-08-21T09:21:18;101459.0;;;22.68;75.42
48892;BME280;50130;52.150;5.236;2022-08-21T09:23:09;101458.0;;;22.86;74.31
48892;BME280;50130;52.150;5.236;2022-08-21T09:25:03;101460.0;;;22.9;74.09
48892;BME280;50130;52.150;5.236;2022-08-21T09:26:48;101460.0;;;22.97;73.58
48892;BME280;50130;52.150;5.236;2022-08-21T09:28:33;101462.0;;;23.08;73.94
48892;BME280;50130;52.150;5.236;2022-08-21T09:30:12;101465.0;;;23.25;73.49
48892;BME280;50130;52.150;5.236;2022-08-21T09:33:26;101468.0;;;23.38;72.36
48892;BME280;50130;52.150;5.236;2022-08-21T09:35:07;101466.0;;;23.52;71.38
48892;BME280;50130;52.150;5.236;2022-08-21T09:36:48;101462.0;;;23.46;71.37
48892;BME280;50130;52.150;5.236;2022-08-21T09:38:29;101469.0;;;23.52;71.38
48892;BME280;50130;52.150;5.236;2022-08-21T09:42:08;101473.0;;;23.64;70.44
48892;BME280;50130;52.150;5.236;2022-08-21T09:43:52;101472.0;;;23.31;70.31
48892;BME280;50130;52.150;5.236;2022-08-21T09:45:31;101473.0;;;23.44;69.61
48892;BME280;50130;52.150;5.236;2022-08-21T09:47:08;101478.0;;;23.53;70.77
48892;BME280;50130;52.150;5.236;2022-08-21T09:48:48;101469.0;;;23.46;70.08
48892;BME280;50130;52.150;5.236;2022-08-21T09:52:16;101466.0;;;23.61;69.66
48892;BME280;50130;52.150;5.236;2022-08-21T09:54:13;101467.0;;;23.65;70.22
48892;BME280;50130;52.150;5.236;2022-08-21T09:58:46;101467.0;;;23.8;68.53
48892;BME280;50130;52.150;5.236;2022-08-21T10:00:28;101468.0;;;23.69;67.13
48892;BME280;50130;52.150;5.236;2022-08-21T10:02:22;101473.0;;;23.78;66.7
48892;BME280;50130;52.150;5.236;2022-08-21T10:04:03;101467.0;;;23.82;68.02
48892;BME280;50130;52.150;5.236;2022-08-21T10:05:53;101464.0;;;23.95;67.1
48892;BME280;50130;52.150;5.236;2022-08-21T10:09:14;101464.0;;;24.15;66.97
48892;BME280;50130;52.150;5.236;2022-08-21T10:10:56;101461.0;;;24.11;65.24
48892;BME280;50130;52.150;5.236;2022-08-21T10:12:46;101458.0;;;24.29;65.66
48892;BME280;50130;52.150;5.236;2022-08-21T10:14:38;101458.0;;;24.46;66.48
48892;BME280;50130;52.150;5.236;2022-08-21T10:16:41;101459.0;;;24.4;65.22
48892;BME280;50130;52.150;5.236;2022-08-21T10:18:34;101456.0;;;24.67;66.27
48892;BME280;50130;52.150;5.236;2022-08-21T10:20:20;101458.0;;;24.7;65.08
48892;BME280;50130;52.150;5.236;2022-08-21T10:23:57;101466.0;;;24.53;65.14
48892;BME280;50130;52.150;5.236;2022-08-21T10:25:41;101462.0;;;24.41;66.6
48892;BME280;50130;52.150;5.236;2022-08-21T10:27:32;101456.0;;;24.63;63.85
48892;BME280;50130;52.150;5.236;2022-08-21T10:31:23;101460.0;;;24.59;62.75
48892;BME280;50130;52.150;5.236;2022-08-21T10:33:16;101453.0;;;24.46;62.27
48892;BME280;50130;52.150;5.236;2022-08-21T10:35:06;101453.0;;;24.38;62.5
48892;BME280;50130;52.150;5.236;2022-08-21T10:38:55;101447.0;;;24.7;63.88
48892;BME280;50130;52.150;5.236;2022-08-21T10:40:39;101445.0;;;24.72;63.13
48892;BME280;50130;52.150;5.236;2022-08-21T10:42:25;101450.0;;;24.85;65.0
48892;BME280;50130;52.150;5.236;2022-08-21T10:44:20;101448.0;;;24.96;63.25
48892;BME280;50130;52.150;5.236;2022-08-21T10:46:08;101445.0;;;24.86;63.72
48892;BME280;50130;52.150;5.236;2022-08-21T10:47:55;101446.0;;;24.98;62.78
48892;BME280;50130;52.150;5.236;2022-08-21T10:49:39;101440.0;;;25.06;61.57
48892;BME280;50130;52.150;5.236;2022-08-21T10:53:19;101438.0;;;25.13;61.53
48892;BME280;50130;52.150;5.236;2022-08-21T10:55:08;101435.0;;;25.12;59.57
48892;BME280;50130;52.150;5.236;2022-08-21T10:56:49;101438.0;;;25.0;58.56
48892;BME280;50130;52.150;5.236;2022-08-21T10:58:37;101436.0;;;24.86;59.99
48892;BME280;50130;52.150;5.236;2022-08-21T11:00:19;101443.0;;;24.93;59.96
48892;BME280;50130;52.150;5.236;2022-08-21T11:03:45;101442.0;;;24.81;58.82
48892;BME280;50130;52.150;5.236;2022-08-21T11:05:30;101437.0;;;24.71;60.18
48892;BME280;50130;52.150;5.236;2022-08-21T11:07:15;101433.0;;;24.61;60.6
48892;BME280;50130;52.150;5.236;2022-08-21T11:08:58;101433.0;;;24.7;60.09
48892;BME280;50130;52.150;5.236;2022-08-21T11:10:49;101438.0;;;24.69;60.09
48892;BME280;50130;52.150;5.236;2022-08-21T11:12:34;101441.0;;;24.41;60.47